sensor_id;sensor_type;location;lat;lon;timestamp;pressure;altitude;pressure_sealevel;temperature;humidity
36378;BME280;22402;42.746;23.606;2023-05-22T02:48:44;93203.50;;;10.69;100.00
36378;BME280;22402;42.746;23.606;2023-05-22T02:51:09;93213.19;;;10.77;100.00
36378;BME280;22402;42.746;23.606;2023-05-22T02:55:37;93214.47;;;10.72;100.00
36378;BME280;22402;42.746;23.606;2023-05-22T02:58:02;93212.53;;;10.75;100.00
36378;BME280;22402;42.746;23.606;2023-05-22T03:00:28;93210.72;;;10.75;100.00
36378;BME280;22402;42.746;23.606;2023-05-22T03:02:53;93210.72;;;10.75;100.00
36378;BME280;22402;42.746;23.606;2023-05-22T03:05:18;93199.50;;;10.75;100.00
36378;BME280;22402;42.746;23.606;2023-05-22T03:07:44;93206.81;;;10.71;100.00
36378;BME280;22402;42.746;23.606;2023-05-22T03:10:09;93209.53;;;10.69;100.00
36378;BME280;22402;42.746;23.606;2023-05-22T03:12:35;93203.22;;;10.72;100.00
36378;BME280;22402;42.746;23.606;2023-05-22T03:15:00;93194.56;;;10.71;100.00
36378;BME280;22402;42.746;23.606;2023-05-22T03:17:26;93200.97;;;10.77;100.00
36378;BME280;22402;42.746;23.606;2023-05-22T03:19:51;93209.44;;;10.79;100.00
36378;BME280;22402;42.746;23.606;2023-05-22T03:22:17;93205.91;;;10.80;100.00
36378;BME280;22402;42.746;23.606;2023-05-22T03:24:43;93211.75;;;10.82;100.00
36378;BME280;22402;42.746;23.606;2023-05-22T03:27:08;93201.19;;;10.84;100.00
36378;BME280;22402;42.746;23.606;2023-05-22T03:29:34;93218.31;;;10.86;100.00
36378;BME280;22402;42.746;23.606;2023-05-22T03:32:00;93216.22;;;10.90;100.00
36378;BME280;22402;42.746;23.606;2023-05-22T03:34:27;93217.56;;;10.94;100.00
36378;BME280;22402;42.746;23.606;2023-05-22T03:36:57;93207.34;;;11.01;100.00
36378;BME280;22402;42.746;23.606;2023-05-22T03:39:22;93216.50;;;11.05;100.00
36378;BME280;22402;42.746;23.606;2023-05-22T03:41:48;93211.66;;;11.10;100.00
36378;BME280;22402;42.746;23.606;2023-05-22T03:44:13;93211.69;;;11.18;100.00
36378;BME280;22402;42.746;23.606;2023-05-22T03:46:39;93206.69;;;11.25;100.00
36378;BME280;22402;42.746;23.606;2023-05-22T03:49:04;93209.63;;;11.30;100.00
36378;BME280;22402;42.746;23.606;2023-05-22T03:51:32;93214.91;;;11.38;100.00
36378;BME280;22402;42.746;23.606;2023-05-22T03:53:58;93212.34;;;11.46;100.00
36378;BME280;22402;42.746;23.606;2023-05-22T03:56:23;93217.75;;;11.53;100.00
36378;BME280;22402;42.746;23.606;2023-05-22T03:58:49;93225.78;;;11.59;100.00
36378;BME280;22402;42.746;23.606;2023-05-22T04:01:14;93227.78;;;11.66;100.00
36378;BME280;22402;42.746;23.606;2023-05-22T04:03:41;93234.03;;;11.73;100.00
36378;BME280;22402;42.746;23.606;2023-05-22T04:06:06;93226.22;;;11.81;100.00
36378;BME280;22402;42.746;23.606;2023-05-22T04:08:32;93227.25;;;11.88;100.00
36378;BME280;22402;42.746;23.606;2023-05-22T04:10:57;93230.41;;;12.00;100.00
36378;BME280;22402;42.746;23.606;2023-05-22T04:13:23;93234.03;;;12.15;100.00
36378;BME280;22402;42.746;23.606;2023-05-22T04:15:48;93222.50;;;12.34;100.00
36378;BME280;22402;42.746;23.606;2023-05-22T04:18:14;93224.00;;;12.53;100.00
36378;BME280;22402;42.746;23.606;2023-05-22T04:20:40;93230.41;;;12.75;100.00
36378;BME280;22402;42.746;23.606;2023-05-22T04:23:06;93217.66;;;12.88;100.00
36378;BME280;22402;42.746;23.606;2023-05-22T04:25:32;93219.78;;;13.01;100.00
36378;BME280;22402;42.746;23.606;2023-05-22T04:27:58;93233.34;;;13.13;100.00
36378;BME280;22402;42.746;23.606;2023-05-22T04:30:27;93225.50;;;13.21;100.00
36378;BME280;22402;42.746;23.606;2023-05-22T04:32:52;93213.06;;;13.31;100.00
36378;BME280;22402;42.746;23.606;2023-05-22T04:35:17;93226.16;;;13.48;100.00
36378;BME280;22402;42.746;23.606;2023-05-22T04:37:43;93218.88;;;13.66;100.00
36378;BME280;22402;42.746;23.606;2023-05-22T04:40:11;93225.03;;;13.89;100.00
36378;BME280;22402;42.746;23.606;2023-05-22T04:42:37;93231.50;;;14.10;100.00
36378;BME280;22402;42.746;23.606;2023-05-22T04:45:06;93229.09;;;14.31;100.00
36378;BME280;22402;42.746;23.606;2023-05-22T04:47:31;93232.28;;;14.50;100.00
36378;BME280;22402;42.746;23.606;2023-05-22T04:49:57;93232.19;;;14.66;100.00
36378;BME280;22402;42.746;23.606;2023-05-22T04:52:24;93218.31;;;14.80;100.00
36378;BME280;22402;42.746;23.606;2023-05-22T04:54:50;93226.44;;;14.94;100.00
36378;BME280;22402;42.746;23.606;2023-05-22T04:57:19;93230.44;;;15.04;100.00
36378;BME280;22402;42.746;23.606;2023-05-22T04:59:46;93233.81;;;15.13;100.00
36378;BME280;22402;42.746;23.606;2023-05-22T05:02:12;93238.66;;;15.24;100.00
36378;BME280;22402;42.746;23.606;2023-05-22T05:04:38;93238.41;;;15.34;100.00
36378;BME280;22402;42.746;23.606;2023-05-22T05:07:03;93234.53;;;15.45;100.00
36378;BME280;22402;42.746;23.606;2023-05-22T05:09:30;93226.03;;;15.58;99.65
36378;BME280;22402;42.746;23.606;2023-05-22T05:11:55;93214.63;;;15.65;98.88
36378;BME280;22402;42.746;23.606;2023-05-22T05:14:22;93220.38;;;15.84;98.04
36378;BME280;22402;42.746;23.606;2023-05-22T05:16:48;93228.25;;;15.99;97.13
36378;BME280;22402;42.746;23.606;2023-05-22T05:19:16;93232.50;;;16.14;95.61
36378;BME280;22402;42.746;23.606;2023-05-22T05:21:42;93232.75;;;16.34;94.24
36378;BME280;22402;42.746;23.606;2023-05-22T05:24:07;93233.88;;;16.61;93.74
36378;BME280;22402;42.746;23.606;2023-05-22T05:26:33;93229.78;;;16.95;93.00
36378;BME280;22402;42.746;23.606;2023-05-22T05:28:58;93231.78;;;17.36;91.80
36378;BME280;22402;42.746;23.606;2023-05-22T05:31:23;93230.88;;;17.79;89.95
36378;BME280;22402;42.746;23.606;2023-05-22T05:33:50;93226.44;;;18.14;87.30
36378;BME280;22402;42.746;23.606;2023-05-22T05:36:16;93230.22;;;18.46;85.38
36378;BME280;22402;42.746;23.606;2023-05-22T05:38:41;93231.38;;;18.78;82.54
36378;BME280;22402;42.746;23.606;2023-05-22T05:41:07;93229.03;;;19.10;81.04
36378;BME280;22402;42.746;23.606;2023-05-22T05:43:32;93227.81;;;19.39;79.36
36378;BME280;22402;42.746;23.606;2023-05-22T05:45:58;93227.84;;;19.72;77.35
36378;BME280;22402;42.746;23.606;2023-05-22T05:48:24;93238.78;;;20.02;75.42
36378;BME280;22402;42.746;23.606;2023-05-22T05:50:49;93234.44;;;20.35;75.14
36378;BME280;22402;42.746;23.606;2023-05-22T05:53:15;93238.81;;;20.67;74.56
36378;BME280;22402;42.746;23.606;2023-05-22T05:55:40;93234.16;;;21.01;73.06
36378;BME280;22402;42.746;23.606;2023-05-22T05:58:06;93239.47;;;21.33;72.24
36378;BME280;22402;42.746;23.606;2023-05-22T06:00:31;93243.13;;;21.64;71.22
36378;BME280;22402;42.746;23.606;2023-05-22T06:02:56;93233.31;;;21.89;69.79
36378;BME280;22402;42.746;23.606;2023-05-22T06:05:22;93243.09;;;22.14;68.73
36378;BME280;22402;42.746;23.606;2023-05-22T06:07:47;93229.56;;;22.40;68.56
36378;BME280;22402;42.746;23.606;2023-05-22T06:10:13;93242.66;;;22.72;67.41
36378;BME280;22402;42.746;23.606;2023-05-22T06:12:39;93240.31;;;23.01;65.91
36378;BME280;22402;42.746;23.606;2023-05-22T06:15:06;93236.59;;;23.32;62.45
36378;BME280;22402;42.746;23.606;2023-05-22T06:20:07;93238.75;;;23.65;55.69
36378;BME280;22402;42.746;23.606;2023-05-22T06:25:03;93236.22;;;23.70;52.67
36378;BME280;22402;42.746;23.606;2023-05-22T06:27:29;93243.63;;;23.68;52.20
36378;BME280;22402;42.746;23.606;2023-05-22T06:29:55;93239.31;;;23.55;51.34
36378;BME280;22402;42.746;23.606;2023-05-22T06:32:20;93229.75;;;23.24;51.45
36378;BME280;22402;42.746;23.606;2023-05-22T06:34:47;93224.81;;;22.97;52.39
36378;BME280;22402;42.746;23.606;2023-05-22T06:37:14;93241.47;;;22.86;52.46
36378;BME280;22402;42.746;23.606;2023-05-22T06:39:40;93234.63;;;22.79;52.17
36378;BME280;22402;42.746;23.606;2023-05-22T06:42:06;93225.84;;;22.78;52.57
36378;BME280;22402;42.746;23.606;2023-05-22T06:44:31;93236.00;;;22.81;51.75
36378;BME280;22402;42.746;23.606;2023-05-22T06:46:57;93240.53;;;22.81;51.81
36378;BME280;22402;42.746;23.606;2023-05-22T06:49:22;93229.97;;;22.74;51.86
36378;BME280;22402;42.746;23.606;2023-05-22T06:51:48;93236.19;;;22.68;52.24
36378;BME280;22402;42.746;23.606;2023-05-22T06:54:14;93232.72;;;22.67;52.16
36378;BME280;22402;42.746;23.606;2023-05-22T06:56:40;93236.41;;;22.66;52.63
36378;BME280;22402;42.746;23.606;2023-05-22T06:59:05;93239.06;;;22.66;52.51
36378;BME280;22402;42.746;23.606;2023-05-22T07:01:31;93244.38;;;22.66;52.28
36378;BME280;22402;42.746;23.606;2023-05-22T07:03:58;93230.59;;;22.58;51.62
36378;BME280;22402;42.746;23.606;2023-05-22T07:06:30;93231.84;;;22.55;52.30
36378;BME280;22402;42.746;23.606;2023-05-22T07:09:14;93222.94;;;22.49;52.06
36378;BME280;22402;42.746;23.606;2023-05-22T07:11:40;93236.06;;;22.44;52.56
36378;BME280;22402;42.746;23.606;2023-05-22T07:14:07;93231.69;;;22.50;53.12
36378;BME280;22402;42.746;23.606;2023-05-22T07:16:33;93238.69;;;22.63;53.14
36378;BME280;22402;42.746;23.606;2023-05-22T07:19:00;93227.78;;;22.71;52.91
36378;BME280;22402;42.746;23.606;2023-05-22T07:21:27;93236.31;;;22.91;52.56
36378;BME280;22402;42.746;23.606;2023-05-22T07:23:56;93232.91;;;23.33;51.83
36378;BME280;22402;42.746;23.606;2023-05-22T07:26:21;93233.25;;;23.78;50.78
36378;BME280;22402;42.746;23.606;2023-05-22T07:28:50;93229.53;;;24.15;50.18
36378;BME280;22402;42.746;23.606;2023-05-22T07:31:16;93237.53;;;24.50;49.36
36378;BME280;22402;42.746;23.606;2023-05-22T07:33:42;93240.81;;;24.81;48.60
36378;BME280;22402;42.746;23.606;2023-05-22T07:36:09;93237.59;;;24.78;47.43
36378;BME280;22402;42.746;23.606;2023-05-22T07:38:34;93236.59;;;24.56;46.52
36378;BME280;22402;42.746;23.606;2023-05-22T07:41:00;93230.59;;;24.49;46.19
36378;BME280;22402;42.746;23.606;2023-05-22T07:43:27;93239.78;;;24.82;45.81
36378;BME280;22402;42.746;23.606;2023-05-22T07:45:52;93232.34;;;25.12;44.34
36378;BME280;22402;42.746;23.606;2023-05-22T07:48:18;93225.84;;;25.65;45.08
36378;BME280;22402;42.746;23.606;2023-05-22T07:50:43;93222.91;;;26.34;44.46
36378;BME280;22402;42.746;23.606;2023-05-22T07:53:09;93215.56;;;26.86;42.98
36378;BME280;22402;42.746;23.606;2023-05-22T07:55:35;93221.94;;;27.07;42.61
36378;BME280;22402;42.746;23.606;2023-05-22T07:58:01;93219.38;;;27.39;40.84
36378;BME280;22402;42.746;23.606;2023-05-22T08:00:28;93212.91;;;27.62;37.87
36378;BME280;22402;42.746;23.606;2023-05-22T08:02:54;93217.50;;;27.39;38.71
36378;BME280;22402;42.746;23.606;2023-05-22T08:05:19;93216.00;;;26.99;39.90
36378;BME280;22402;42.746;23.606;2023-05-22T08:07:45;93220.22;;;26.51;39.23
36378;BME280;22402;42.746;23.606;2023-05-22T08:10:14;93220.28;;;26.01;41.09
36378;BME280;22402;42.746;23.606;2023-05-22T08:12:40;93223.19;;;25.65;42.37
36378;BME280;22402;42.746;23.606;2023-05-22T08:15:06;93218.94;;;25.36;42.62
36378;BME280;22402;42.746;23.606;2023-05-22T08:17:32;93226.63;;;24.92;42.12
36378;BME280;22402;42.746;23.606;2023-05-22T08:22:28;93222.81;;;24.24;43.82
36378;BME280;22402;42.746;23.606;2023-05-22T08:25:04;93228.28;;;24.17;43.80
36378;BME280;22402;42.746;23.606;2023-05-22T08:27:29;93225.50;;;23.88;44.34
36378;BME280;22402;42.746;23.606;2023-05-22T08:29:55;93224.47;;;23.36;44.74
36378;BME280;22402;42.746;23.606;2023-05-22T08:32:21;93231.44;;;22.88;45.93
36378;BME280;22402;42.746;23.606;2023-05-22T08:38:10;93238.72;;;22.26;47.89
36378;BME280;22402;42.746;23.606;2023-05-22T08:43:57;93243.13;;;21.64;50.29
36378;BME280;22402;42.746;23.606;2023-05-22T08:49:45;93243.09;;;21.45;52.04
36378;BME280;22402;42.746;23.606;2023-05-22T08:52:30;93243.63;;;21.79;51.63
36378;BME280;22402;42.746;23.606;2023-05-22T08:54:57;93241.94;;;21.84;51.06
36378;BME280;22402;42.746;23.606;2023-05-22T08:57:24;93240.34;;;21.77;51.30
36378;BME280;22402;42.746;23.606;2023-05-22T08:59:50;93239.00;;;21.68;51.55
36378;BME280;22402;42.746;23.606;2023-05-22T09:02:17;93241.59;;;21.74;51.92
36378;BME280;22402;42.746;23.606;2023-05-22T09:04:42;93242.44;;;21.75;52.22
36378;BME280;22402;42.746;23.606;2023-05-22T09:07:08;93240.97;;;21.79;51.83
36378;BME280;22402;42.746;23.606;2023-05-22T09:09:37;93234.53;;;22.12;51.35
36378;BME280;22402;42.746;23.606;2023-05-22T09:12:05;93229.53;;;22.77;50.48
36378;BME280;22402;42.746;23.606;2023-05-22T09:14:37;93235.94;;;23.48;49.31
36378;BME280;22402;42.746;23.606;2023-05-22T09:17:04;93232.56;;;23.95;48.63
36378;BME280;22402;42.746;23.606;2023-05-22T09:19:29;93238.69;;;24.30;48.42
36378;BME280;22402;42.746;23.606;2023-05-22T09:22:04;93233.91;;;24.56;47.51
36378;BME280;22402;42.746;23.606;2023-05-22T09:24:30;93236.28;;;24.93;46.35
36378;BME280;22402;42.746;23.606;2023-05-22T09:27:02;93232.19;;;25.31;45.82
36378;BME280;22402;42.746;23.606;2023-05-22T09:29:28;93233.94;;;25.54;45.24
36378;BME280;22402;42.746;23.606;2023-05-22T09:31:57;93242.09;;;25.47;44.84
36378;BME280;22402;42.746;23.606;2023-05-22T09:34:27;93242.78;;;25.26;45.48
36378;BME280;22402;42.746;23.606;2023-05-22T09:37:01;93244.78;;;25.07;45.20
36378;BME280;22402;42.746;23.606;2023-05-22T09:39:37;93247.59;;;25.00;45.92
36378;BME280;22402;42.746;23.606;2023-05-22T09:42:04;93239.50;;;24.95;46.20
36378;BME280;22402;42.746;23.606;2023-05-22T09:44:31;93241.53;;;24.76;45.89
36378;BME280;22402;42.746;23.606;2023-05-22T09:46:56;93245.41;;;24.45;46.45
36378;BME280;22402;42.746;23.606;2023-05-22T09:49:21;93240.91;;;24.10;47.34
36378;BME280;22402;42.746;23.606;2023-05-22T09:51:53;93245.75;;;23.78;48.55
36378;BME280;22402;42.746;23.606;2023-05-22T09:54:19;93249.91;;;23.43;49.58
36378;BME280;22402;42.746;23.606;2023-05-22T09:56:48;93242.38;;;22.98;50.43
36378;BME280;22402;42.746;23.606;2023-05-22T09:59:24;93247.84;;;22.48;52.09
36378;BME280;22402;42.746;23.606;2023-05-22T10:01:52;93244.13;;;22.13;53.44
36378;BME280;22402;42.746;23.606;2023-05-22T10:04:20;93240.78;;;21.99;54.44
36378;BME280;22402;42.746;23.606;2023-05-22T10:06:50;93239.81;;;21.93;54.89
36378;BME280;22402;42.746;23.606;2023-05-22T10:09:23;93233.47;;;21.94;55.00
36378;BME280;22402;42.746;23.606;2023-05-22T10:11:54;93242.69;;;22.17;54.42
36378;BME280;22402;42.746;23.606;2023-05-22T10:14:22;93236.59;;;22.35;52.52
36378;BME280;22402;42.746;23.606;2023-05-22T10:16:48;93226.53;;;22.55;51.54
36378;BME280;22402;42.746;23.606;2023-05-22T10:19:14;93230.69;;;22.81;51.04
36378;BME280;22402;42.746;23.606;2023-05-22T10:21:40;93236.53;;;23.20;50.45
36378;BME280;22402;42.746;23.606;2023-05-22T10:24:06;93232.81;;;23.51;49.41
36378;BME280;22402;42.746;23.606;2023-05-22T10:26:32;93230.91;;;23.82;49.08
36378;BME280;22402;42.746;23.606;2023-05-22T10:29:09;93227.81;;;24.44;47.52
36378;BME280;22402;42.746;23.606;2023-05-22T10:31:44;93233.47;;;25.28;46.56
36378;BME280;22402;42.746;23.606;2023-05-22T10:34:25;93236.78;;;25.81;45.02
36378;BME280;22402;42.746;23.606;2023-05-22T10:37:07;93230.75;;;26.41;43.55
36378;BME280;22402;42.746;23.606;2023-05-22T10:42:16;93233.91;;;26.77;42.92
36378;BME280;22402;42.746;23.606;2023-05-22T10:44:42;93235.22;;;26.96;42.39
36378;BME280;22402;42.746;23.606;2023-05-22T10:47:10;93235.09;;;27.08;43.34
36378;BME280;22402;42.746;23.606;2023-05-22T10:49:41;93230.75;;;27.02;43.73
36378;BME280;22402;42.746;23.606;2023-05-22T10:52:08;93230.88;;;26.68;43.02
36378;BME280;22402;42.746;23.606;2023-05-22T10:54:53;93228.47;;;25.94;43.45
36378;BME280;22402;42.746;23.606;2023-05-22T10:57:18;93236.25;;;25.33;45.27
36378;BME280;22402;42.746;23.606;2023-05-22T10:59:48;93233.28;;;24.77;47.14
36378;BME280;22402;42.746;23.606;2023-05-22T11:02:24;93236.84;;;24.19;48.42
36378;BME280;22402;42.746;23.606;2023-05-22T11:04:53;93233.56;;;23.70;49.62
36378;BME280;22402;42.746;23.606;2023-05-22T11:07:19;93234.09;;;23.49;50.42
36378;BME280;22402;42.746;23.606;2023-05-22T11:09:45;93254.63;;;23.30;50.36
36378;BME280;22402;42.746;23.606;2023-05-22T11:12:28;93255.81;;;23.04;50.59
36378;BME280;22402;42.746;23.606;2023-05-22T11:15:05;93263.94;;;22.72;51.60
36378;BME280;22402;42.746;23.606;2023-05-22T11:17:33;93259.81;;;22.39;54.06
36378;BME280;22402;42.746;23.606;2023-05-22T11:20:04;93259.91;;;22.07;55.69
36378;BME280;22402;42.746;23.606;2023-05-22T11:22:33;93266.25;;;21.81;56.98
36378;BME280;22402;42.746;23.606;2023-05-22T11:25:02;93273.13;;;21.64;57.62
36378;BME280;22402;42.746;23.606;2023-05-22T11:27:29;93273.44;;;21.49;57.62
36378;BME280;22402;42.746;23.606;2023-05-22T11:29:55;93276.78;;;21.31;58.43
36378;BME280;22402;42.746;23.606;2023-05-22T11:32:22;93289.28;;;21.17;58.76
36378;BME280;22402;42.746;23.606;2023-05-22T11:34:56;93277.75;;;21.05;59.44
36378;BME280;22402;42.746;23.606;2023-05-22T11:37:22;93280.91;;;20.89;60.04
36378;BME280;22402;42.746;23.606;2023-05-22T11:39:54;93267.16;;;20.60;60.76
36378;BME280;22402;42.746;23.606;2023-05-22T11:42:21;93255.38;;;20.36;61.95
36378;BME280;22402;42.746;23.606;2023-05-22T11:44:46;93262.38;;;20.17;63.03
36378;BME280;22402;42.746;23.606;2023-05-22T11:47:13;93263.81;;;20.00;63.70
36378;BME280;22402;42.746;23.606;2023-05-22T11:49:42;93259.78;;;19.84;64.24
36378;BME280;22402;42.746;23.606;2023-05-22T11:52:09;93254.69;;;19.69;65.18
36378;BME280;22402;42.746;23.606;2023-05-22T11:54:45;93257.13;;;19.57;66.17
36378;BME280;22402;42.746;23.606;2023-05-22T11:57:14;93255.06;;;19.40;66.39
36378;BME280;22402;42.746;23.606;2023-05-22T11:59:46;93257.91;;;19.25;66.51
36378;BME280;22402;42.746;23.606;2023-05-22T12:02:16;93277.78;;;19.07;66.99
36378;BME280;22402;42.746;23.606;2023-05-22T12:04:42;93262.09;;;18.93;67.48
36378;BME280;22402;42.746;23.606;2023-05-22T12:07:08;93261.06;;;18.80;67.90
36378;BME280;22402;42.746;23.606;2023-05-22T12:09:34;93256.97;;;18.78;69.04
36378;BME280;22402;42.746;23.606;2023-05-22T12:12:00;93260.66;;;18.83;69.65
36378;BME280;22402;42.746;23.606;2023-05-22T12:14:27;93260.28;;;19.06;69.77
36378;BME280;22402;42.746;23.606;2023-05-22T12:16:53;93263.19;;;19.45;68.86
36378;BME280;22402;42.746;23.606;2023-05-22T12:19:24;93259.91;;;20.29;67.19
36378;BME280;22402;42.746;23.606;2023-05-22T12:21:50;93249.81;;;21.41;63.08
36378;BME280;22402;42.746;23.606;2023-05-22T12:24:16;93245.91;;;22.19;60.71
36378;BME280;22402;42.746;23.606;2023-05-22T12:26:54;93246.09;;;22.61;59.62
36378;BME280;22402;42.746;23.606;2023-05-22T12:29:22;93245.47;;;22.77;59.22
36378;BME280;22402;42.746;23.606;2023-05-22T12:31:48;93255.56;;;22.87;59.28
36378;BME280;22402;42.746;23.606;2023-05-22T12:34:15;93246.06;;;22.97;58.71
36378;BME280;22402;42.746;23.606;2023-05-22T12:36:43;93250.94;;;23.01;58.50
36378;BME280;22402;42.746;23.606;2023-05-22T12:39:19;93249.88;;;23.02;57.58
36378;BME280;22402;42.746;23.606;2023-05-22T12:41:46;93234.28;;;23.05;56.59
36378;BME280;22402;42.746;23.606;2023-05-22T12:44:14;93236.00;;;23.72;55.57
36378;BME280;22402;42.746;23.606;2023-05-22T12:46:42;93224.28;;;25.36;53.27
36378;BME280;22402;42.746;23.606;2023-05-22T12:49:09;93226.66;;;27.43;48.05
36378;BME280;22402;42.746;23.606;2023-05-22T12:51:34;93226.81;;;29.44;43.28
36378;BME280;22402;42.746;23.606;2023-05-22T12:54:01;93212.81;;;30.85;39.23
36378;BME280;22402;42.746;23.606;2023-05-22T12:56:28;93217.78;;;31.12;38.30
36378;BME280;22402;42.746;23.606;2023-05-22T12:58:53;93218.22;;;30.54;39.14
36378;BME280;22402;42.746;23.606;2023-05-22T13:01:19;93227.09;;;29.58;40.72
36378;BME280;22402;42.746;23.606;2023-05-22T13:03:46;93233.44;;;28.53;42.95
36378;BME280;22402;42.746;23.606;2023-05-22T13:06:11;93228.31;;;27.49;44.40
36378;BME280;22402;42.746;23.606;2023-05-22T13:08:37;93215.50;;;26.58;46.28
36378;BME280;22402;42.746;23.606;2023-05-22T13:11:03;93225.16;;;25.87;48.55
36378;BME280;22402;42.746;23.606;2023-05-22T13:13:29;93213.59;;;25.36;49.97
36378;BME280;22402;42.746;23.606;2023-05-22T13:15:55;93216.97;;;25.14;50.46
36378;BME280;22402;42.746;23.606;2023-05-22T13:18:20;93206.34;;;26.16;48.99
36378;BME280;22402;42.746;23.606;2023-05-22T13:20:46;93207.09;;;27.75;45.38
36378;BME280;22402;42.746;23.606;2023-05-22T13:23:14;93201.56;;;28.67;42.77
36378;BME280;22402;42.746;23.606;2023-05-22T13:25:40;93192.50;;;29.82;41.07
36378;BME280;22402;42.746;23.606;2023-05-22T13:28:05;93198.91;;;30.42;40.54
36378;BME280;22402;42.746;23.606;2023-05-22T13:30:31;93199.41;;;30.59;40.72
36378;BME280;22402;42.746;23.606;2023-05-22T13:32:57;93211.59;;;29.90;42.13
36378;BME280;22402;42.746;23.606;2023-05-22T13:35:22;93217.16;;;28.70;45.06
36378;BME280;22402;42.746;23.606;2023-05-22T13:37:48;93211.78;;;27.31;49.48
36378;BME280;22402;42.746;23.606;2023-05-22T13:40:14;93218.34;;;25.96;53.54
36378;BME280;22402;42.746;23.606;2023-05-22T13:42:40;93219.84;;;24.84;56.10
36378;BME280;22402;42.746;23.606;2023-05-22T13:45:06;93213.47;;;23.98;59.36
36378;BME280;22402;42.746;23.606;2023-05-22T13:47:33;93207.56;;;23.30;62.82
36378;BME280;22402;42.746;23.606;2023-05-22T13:49:59;93211.53;;;22.79;64.49
36378;BME280;22402;42.746;23.606;2023-05-22T13:52:26;93209.56;;;22.38;66.00
36378;BME280;22402;42.746;23.606;2023-05-22T13:54:51;93216.59;;;22.07;67.56
36378;BME280;22402;42.746;23.606;2023-05-22T13:57:17;93217.88;;;21.79;68.82
36378;BME280;22402;42.746;23.606;2023-05-22T13:59:42;93229.97;;;21.50;68.98
36378;BME280;22402;42.746;23.606;2023-05-22T14:02:08;93229.19;;;21.11;70.71
36378;BME280;22402;42.746;23.606;2023-05-22T14:04:36;93227.38;;;20.67;73.29
36378;BME280;22402;42.746;23.606;2023-05-22T14:07:14;93224.25;;;20.25;75.96
36378;BME280;22402;42.746;23.606;2023-05-22T14:09:40;93218.25;;;19.91;77.78
36378;BME280;22402;42.746;23.606;2023-05-22T14:12:05;93224.75;;;19.62;79.52
36378;BME280;22402;42.746;23.606;2023-05-22T14:14:31;93222.94;;;19.43;80.44
36378;BME280;22402;42.746;23.606;2023-05-22T14:16:56;93212.75;;;19.26;81.36
36378;BME280;22402;42.746;23.606;2023-05-22T14:19:22;93220.69;;;19.13;82.11
36378;BME280;22402;42.746;23.606;2023-05-22T14:21:49;93226.75;;;19.00;82.40
36378;BME280;22402;42.746;23.606;2023-05-22T14:24:15;93221.69;;;18.92;83.12
36378;BME280;22402;42.746;23.606;2023-05-22T14:26:42;93226.72;;;18.80;84.17
36378;BME280;22402;42.746;23.606;2023-05-22T14:29:08;93226.66;;;18.67;85.33
36378;BME280;22402;42.746;23.606;2023-05-22T14:31:47;93231.03;;;18.47;86.08
36378;BME280;22402;42.746;23.606;2023-05-22T14:34:14;93235.22;;;18.28;86.97
36378;BME280;22402;42.746;23.606;2023-05-22T14:36:40;93245.06;;;18.06;87.75
36378;BME280;22402;42.746;23.606;2023-05-22T14:39:06;93242.69;;;17.83;88.27
36378;BME280;22402;42.746;23.606;2023-05-22T14:41:32;93235.63;;;17.62;89.43
36378;BME280;22402;42.746;23.606;2023-05-22T14:43:57;93235.91;;;17.45;90.46
36378;BME280;22402;42.746;23.606;2023-05-22T14:46:22;93243.06;;;17.30;91.46
36378;BME280;22402;42.746;23.606;2023-05-22T14:48:57;93239.69;;;17.15;93.11
36378;BME280;22402;42.746;23.606;2023-05-22T14:51:23;93236.31;;;16.99;93.61
36378;BME280;22402;42.746;23.606;2023-05-22T14:53:57;93236.81;;;16.88;94.13
36378;BME280;22402;42.746;23.606;2023-05-22T14:56:23;93231.50;;;16.81;94.90
36378;BME280;22402;42.746;23.606;2023-05-22T14:58:49;93240.94;;;16.76;95.78
36378;BME280;22402;42.746;23.606;2023-05-22T15:01:15;93241.28;;;16.73;96.38
36378;BME280;22402;42.746;23.606;2023-05-22T15:03:40;93229.69;;;16.67;96.52
36378;BME280;22402;42.746;23.606;2023-05-22T15:06:06;93236.56;;;16.68;97.42
36378;BME280;22402;42.746;23.606;2023-05-22T15:08:31;93231.13;;;16.70;97.22
36378;BME280;22402;42.746;23.606;2023-05-22T15:10:57;93226.13;;;16.75;98.03
36378;BME280;22402;42.746;23.606;2023-05-22T15:13:22;93227.84;;;16.82;99.29
36378;BME280;22402;42.746;23.606;2023-05-22T15:15:48;93234.63;;;16.92;100.00
36378;BME280;22402;42.746;23.606;2023-05-22T15:18:13;93237.31;;;16.98;99.21
36378;BME280;22402;42.746;23.606;2023-05-22T15:20:39;93249.75;;;17.04;98.51
36378;BME280;22402;42.746;23.606;2023-05-22T15:23:04;93242.72;;;17.12;98.51
36378;BME280;22402;42.746;23.606;2023-05-22T15:25:30;93240.50;;;17.15;98.22
36378;BME280;22402;42.746;23.606;2023-05-22T15:28:01;93255.88;;;17.12;95.87
36378;BME280;22402;42.746;23.606;2023-05-22T15:30:27;93265.56;;;17.04;93.82
36378;BME280;22402;42.746;23.606;2023-05-22T15:32:58;93258.69;;;16.89;93.00
36378;BME280;22402;42.746;23.606;2023-05-22T15:35:27;93267.28;;;16.76;94.09
36378;BME280;22402;42.746;23.606;2023-05-22T15:38:04;93259.81;;;16.64;95.79
36378;BME280;22402;42.746;23.606;2023-05-22T15:40:30;93254.41;;;16.51;96.73
36378;BME280;22402;42.746;23.606;2023-05-22T15:43:01;93242.75;;;16.39;98.07
36378;BME280;22402;42.746;23.606;2023-05-22T15:45:28;93240.38;;;16.29;99.35
36378;BME280;22402;42.746;23.606;2023-05-22T15:47:54;93228.16;;;16.22;100.00
36378;BME280;22402;42.746;23.606;2023-05-22T15:50:20;93236.78;;;16.15;100.00
36378;BME280;22402;42.746;23.606;2023-05-22T15:52:45;93235.69;;;16.10;100.00
36378;BME280;22402;42.746;23.606;2023-05-22T15:55:11;93240.16;;;16.09;100.00
36378;BME280;22402;42.746;23.606;2023-05-22T15:57:36;93228.97;;;16.07;100.00